920  
FGUS64 KORN 231550  
ESPORN  
 
EXTENDED STREAMFLOW PREDICTION  
NATIONAL WEATHER SERVICE RIVER FORECAST CENTER, SLIDELL, LA  
1049 AM CDT FRI JUN 23 2017  
 
DATE CPGM7 CIRI2 NMDM7 TPTT1 CRTM7 OSGA4 MEMT1 TRPM6 HEEA4  
06-24-17 27.0 30.9 19.6 22.5 21.1 13.8 14.1 24.6 20.9  
06-25-17 26.5 31.8 20.6 23.5 22.1 15.0 15.0 25.5 21.9  
06-26-17 25.8 32.1 21.1 24.2 22.8 15.9 15.9 26.4 22.9  
06-27-17 25.2 32.1 21.3 24.4 23.3 16.6 16.7 27.1 23.7  
06-28-17 24.8 32.3 21.4 24.5 23.4 17.0 17.4 27.9 24.4  
06-29-17 24.5 32.1 21.3 24.7 23.7 17.1 17.7 28.3 24.9  
06-30-17 24.3 32.4 21.5 24.5 23.6 17.3 17.8 28.4 25.2  
07-01-17 24.0 32.9 21.9 24.8 23.6 17.2 17.8 28.6 25.4  
07-02-17 23.8 32.6 22.2 25.4 24.2 17.5 17.8 28.6 25.4  
07-03-17 23.2 30.3 20.8 25.0 24.4 18.1 18.3 28.8 25.5  
07-04-17 22.5 27.0 18.1 22.7 23.0 17.8 18.7 29.4 25.9  
07-05-17 22.0 24.7 15.5 20.2 20.6 15.3 17.1 29.0 26.3  
07-06-17 21.7 22.7 13.4 18.0 18.3 12.8 14.7 26.8 24.8  
07-07-17 21.5 21.4 11.8 16.2 16.3 10.4 12.3 24.6 22.8  
07-08-17 21.4 20.5 10.8 15.0 14.9 8.5 10.3 22.4 20.7  
07-09-17 21.2 20.0 10.1 14.3 14.1 7.3 8.8 20.7 18.7  
07-10-17 20.8 19.4 9.7 13.8 13.6 6.7 8.1 19.8 17.4  
07-11-17 20.1 18.7 9.1 13.2 13.0 6.1 7.6 19.2 16.9  
07-12-17 19.4 18.0 8.4 12.6 12.5 5.5 7.0 18.7 16.3  
07-13-17 18.7 17.5 7.8 12.0 11.9 5.0 6.4 18.2 15.9  
07-14-17 18.0 16.9 7.3 11.6 11.5 4.4 5.9 17.8 15.5  
07-15-17 17.3 16.4 6.8 11.1 11.1 3.9 5.4 17.3 15.1  
07-16-17 16.6 16.0 6.5 10.7 10.6 3.4 4.9 16.8 14.7  
07-17-17 16.2 15.7 6.1 10.3 10.2 3.0 4.5 16.4 14.2  
07-18-17 15.8 15.3 5.7 9.8 9.8 2.5 4.1 15.9 13.8  
07-19-17 15.3 14.9 5.4 9.5 9.5 2.1 3.7 15.6 13.4  
07-20-17 14.7 14.5 5.0 9.2 9.1 1.8 3.4 15.2 13.1  
07-21-17 14.4 14.2 4.7 8.8 8.8 1.4 3.1 14.9 12.7  
 
DATE ARSA4 GEEM6 VCKM6 NTZM6 RRLL1 BTRL1 DONL1 RRVL1 NORL1  
06-24-17 21.0 32.5 31.2 42.0 46.1 30.5 21.2 16.1 11.5  
06-25-17 21.8 32.8 31.2 41.3 45.1 29.5 20.4 15.6 11.2  
06-26-17 22.3 33.6 31.5 41.3 44.5 28.6 19.7 15.0 10.8  
06-27-17 22.7 34.1 32.0 41.6 44.4 28.4 19.2 14.7 10.4  
06-28-17 23.0 34.4 32.5 42.0 44.8 28.5 19.3 14.6 10.3  
06-29-17 23.2 34.6 32.8 42.5 45.2 29.0 19.6 14.7 10.3  
06-30-17 23.3 34.8 33.1 42.8 45.6 29.3 19.8 14.9 10.4  
07-01-17 23.4 34.9 33.3 43.0 45.8 29.5 20.0 15.0 10.5  
07-02-17 23.4 35.0 33.5 43.2 46.1 29.8 20.2 15.2 10.6  
07-03-17 23.4 35.0 33.5 43.4 46.2 30.0 20.3 15.3 10.8  
07-04-17 23.5 35.1 33.7 43.6 46.4 30.2 20.5 15.4 10.8  
07-05-17 23.5 35.1 33.7 43.6 46.5 30.4 20.7 15.6 10.9  
07-06-17 23.2 35.0 33.8 43.6 46.7 30.5 20.8 15.7 11.0  
07-07-17 22.4 34.5 33.6 43.7 46.8 30.5 20.9 15.7 11.1  
07-08-17 20.9 33.4 33.1 43.6 46.8 30.6 21.0 15.8 11.1  
07-09-17 19.3 32.0 32.1 43.2 46.7 30.6 21.0 15.8 11.2  
07-10-17 17.5 30.5 30.8 42.2 46.2 30.3 20.9 15.9 11.2  
07-11-17 15.9 28.9 29.4 41.0 45.3 29.5 20.5 15.7 11.2  
07-12-17 15.0 27.6 28.2 39.7 44.2 28.7 19.9 15.4 11.0  
07-13-17 14.2 26.8 27.1 38.5 43.1 27.6 19.2 14.9 10.7  
07-14-17 13.5 26.1 26.1 37.3 42.0 26.5 18.6 14.5 10.3  
07-15-17 13.0 25.5 25.4 36.5 40.9 25.6 17.9 14.0 10.0  
07-16-17 12.1 24.9 24.8 35.6 39.9 24.6 17.2 13.6 9.8  
07-17-17 11.1 24.0 24.1 34.9 39.1 23.8 16.6 13.2 9.5  
07-18-17 10.2 23.0 23.4 34.3 38.4 23.0 16.0 12.8 9.2  
07-19-17 9.5 22.2 22.6 33.6 37.8 22.3 15.6 12.5 9.0  
07-20-17 8.8 21.6 21.9 32.9 37.2 21.8 15.2 12.1 8.7  
07-21-17 8.3 21.0 21.2 32.3 36.6 21.2 14.8 11.8 8.5  
 
NOTE: STAGE FORECASTS ARE BASED ON FUTURE RAINFALL COVERING  
THE NEXT 48 HOURS.  
 
END ORN  
 

 
 
CLICK HERE TO GO TO PREVIOUS BULLETINS.

The Nexlab RFC Page Main Text Page